Time;durP1;ratioP1;P1;durP2;ratioP2;P2;SDS_P1;SDS_P2;PMS_P1;PMS_P2;Temp;Humidity;BMP_temperature;BMP_pressure;BME280_temperature;BME280_humidity;BME280_pressure;Samples;Min_cycle;Max_cycle;Signal;HPM_P1;HPM_P2
2022/11/27 00:01:42;;;;;;;17.58;11.32;;;;;;;4.98;54.96;102488.91;5069951;28;20437;-75
2022/11/27 00:04:10;;;;;;;22.10;12.88;;;;;;;4.90;55.44;102487.69;5057110;28;20458;-75
2022/11/27 00:06:38;;;;;;;18.55;12.25;;;;;;;4.81;55.52;102485.59;5057149;28;20469;-75
2022/11/27 00:09:06;;;;;;;16.07;11.43;;;;;;;4.74;55.46;102483.31;5068771;28;20462;-75
2022/11/27 00:11:32;;;;;;;14.90;10.23;;;;;;;4.76;55.26;102488.50;5070700;28;20918;-75
2022/11/27 00:13:59;;;;;;;17.85;10.82;;;;;;;4.67;55.82;102487.22;5052879;28;20487;-75
2022/11/27 00:16:25;;;;;;;17.42;12.13;;;;;;;4.64;55.94;102487.41;5050650;28;20434;-75
2022/11/27 00:18:51;;;;;;;19.30;13.27;;;;;;;4.62;55.64;102476.13;5064164;28;20429;-75
2022/11/27 00:21:23;;;;;;;20.00;12.98;;;;;;;4.57;55.57;102486.06;5057449;28;20379;-75
2022/11/27 00:23:54;;;;;;;19.10;11.27;;;;;;;4.42;55.96;102476.44;5055886;28;20469;-75
2022/11/27 00:26:20;;;;;;;18.80;11.30;;;;;;;4.44;55.90;102483.28;5050357;28;20474;-75
2022/11/27 00:28:46;;;;;;;18.08;12.30;;;;;;;4.64;55.71;102490.03;5050738;28;20808;-75
2022/11/27 00:31:14;;;;;;;18.23;11.95;;;;;;;4.76;55.18;102484.06;5050499;28;20464;-75
2022/11/27 00:33:40;;;;;;;17.45;12.23;;;;;;;4.82;55.31;102493.38;5061893;28;20831;-75
2022/11/27 00:36:06;;;;;;;17.60;11.37;;;;;;;4.80;55.16;102495.25;5052655;28;20485;-75
2022/11/27 00:38:33;;;;;;;19.17;12.50;;;;;;;4.82;54.89;102498.63;5046567;28;20385;-75
2022/11/27 00:41:27;;;;;;;18.95;12.65;;;;;;;4.79;55.01;102494.41;5046568;28;20392;-75
2022/11/27 00:43:54;;;;;;;20.25;13.98;;;;;;;4.71;55.47;102495.78;5020350;28;20814;-75
2022/11/27 00:46:22;;;;;;;22.67;14.53;;;;;;;4.69;56.03;102502.91;5051071;28;20440;-75
2022/11/27 00:48:48;;;;;;;23.45;14.68;;;;;;;4.67;55.84;102497.75;5057438;28;20466;-75
2022/11/27 00:51:16;;;;;;;24.17;14.97;;;;;;;4.69;56.05;102502.91;5051658;28;20489;-75
2022/11/27 00:53:42;;;;;;;23.73;13.43;;;;;;;4.72;56.21;102495.69;5050614;28;20455;-75
2022/11/27 00:56:13;;;;;;;23.73;14.50;;;;;;;4.73;56.31;102500.00;5050824;28;20375;-75
2022/11/27 00:58:39;;;;;;;23.05;13.30;;;;;;;4.75;55.99;102507.81;5053758;28;20385;-75
2022/11/27 01:01:06;;;;;;;21.57;13.20;;;;;;;4.77;55.72;102511.19;5064121;28;20697;-74
2022/11/27 01:03:33;;;;;;;18.83;13.07;;;;;;;4.76;55.65;102507.72;5047578;28;20378;-75
2022/11/27 01:06:06;;;;;;;22.60;13.95;;;;;;;4.71;56.20;102503.66;5039068;28;20905;-74
2022/11/27 01:08:32;;;;;;;20.13;12.20;;;;;;;4.69;56.46;102505.53;5064818;28;20387;-75
2022/11/27 01:10:58;;;;;;;52.33;37.28;;;;;;;4.73;56.18;102501.78;5066041;28;20377;-75
2022/11/27 01:13:28;;;;;;;41.72;30.00;;;;;;;4.73;55.97;102499.16;5064583;28;20379;-74
2022/11/27 01:16:06;;;;;;;68.30;54.97;;;;;;;4.76;56.21;102501.63;5062964;28;20882;-74
2022/11/27 01:18:33;;;;;;;21.40;14.68;;;;;;;4.72;56.18;102508.00;5060349;28;20461;-75
2022/11/27 01:20:59;;;;;;;19.42;14.70;;;;;;;4.76;55.96;102504.25;5067437;28;20378;-75
2022/11/27 01:23:25;;;;;;;23.90;17.17;;;;;;;4.65;56.26;102498.78;5052231;28;20375;-75
2022/11/27 01:25:52;;;;;;;19.50;13.40;;;;;;;4.64;56.29;102494.44;5068171;28;21163;-75
2022/11/27 01:28:19;;;;;;;20.35;14.18;;;;;;;4.76;56.17;102499.00;5071108;28;22399;-75
2022/11/27 01:30:44;;;;;;;20.00;13.10;;;;;;;4.79;55.77;102490.94;5069099;28;20428;-75
2022/11/27 01:33:10;;;;;;;20.70;13.17;;;;;;;4.79;55.85;102498.84;5067173;28;20372;-74
2022/11/27 01:35:36;;;;;;;23.00;14.37;;;;;;;4.85;55.44;102490.59;5070106;28;20673;-75
2022/11/27 01:38:01;;;;;;;27.13;16.70;;;;;;;4.86;55.63;102494.91;5068882;28;20862;-75
2022/11/27 01:40:27;;;;;;;26.87;18.43;;;;;;;4.84;56.09;102488.88;5070789;28;20389;-74
2022/11/27 01:42:52;;;;;;;25.27;17.07;;;;;;;4.91;55.49;102482.34;5071515;28;20524;-75
2022/11/27 01:45:19;;;;;;;23.08;15.10;;;;;;;5.00;55.55;102491.47;5066504;28;20425;-74
2022/11/27 01:47:56;;;;;;;22.98;13.50;;;;;;;5.01;55.09;102492.34;5065918;28;20404;-74
2022/11/27 01:50:36;;;;;;;20.75;12.93;;;;;;;5.06;54.98;102483.25;5052759;28;20387;-75
2022/11/27 01:53:09;;;;;;;20.75;13.88;;;;;;;5.16;55.02;102489.63;5056798;28;20384;-74
2022/11/27 01:55:39;;;;;;;26.17;17.70;;;;;;;5.22;54.65;102496.31;5054969;28;20389;-74
2022/11/27 01:58:20;;;;;;;28.45;18.42;;;;;;;5.26;54.52;102502.25;5053500;28;20372;-74
2022/11/27 02:00:45;;;;;;;26.13;15.90;;;;;;;5.21;54.76;102497.25;5051203;28;20381;-74
2022/11/27 02:03:11;;;;;;;29.33;17.07;;;;;;;5.33;54.58;102501.78;5052233;28;20373;-75
2022/11/27 02:05:36;;;;;;;25.40;15.97;;;;;;;5.39;54.64;102502.34;5052679;28;20391;-74
2022/11/27 02:08:09;;;;;;;31.30;16.43;;;;;;;5.46;54.56;102501.88;5048645;28;20411;-74
2022/11/27 02:10:49;;;;;;;27.60;16.30;;;;;;;5.47;54.54;102494.84;5052561;28;20376;-75
2022/11/27 02:13:37;;;;;;;23.55;15.18;;;;;;;5.39;54.38;102497.94;5052587;28;20393;-75
2022/11/27 02:16:24;;;;;;;23.90;14.13;;;;;;;5.30;54.82;102493.22;5049319;28;20479;-75
2022/11/27 02:19:05;;;;;;;19.58;12.75;;;;;;;5.27;54.79;102496.88;5044927;28;20824;-75
2022/11/27 02:22:11;;;;;;;20.02;13.55;;;;;;;5.09;54.87;102488.28;5039897;28;20412;-75
2022/11/27 02:24:43;;;;;;;20.42;13.50;;;;;;;5.00;55.28;102485.38;5046728;28;20384;-75
2022/11/27 02:27:14;;;;;;;20.23;14.73;;;;;;;5.02;55.62;102491.38;5048820;28;20834;-75
2022/11/27 02:29:41;;;;;;;23.20;15.88;;;;;;;5.09;55.25;102490.91;5046745;28;20850;-74
2022/11/27 02:32:34;;;;;;;26.35;17.45;;;;;;;5.18;54.85;102494.78;5047052;28;20424;-75
2022/11/27 02:35:36;;;;;;;26.65;19.90;;;;;;;5.11;55.33;102488.22;5051935;28;20388;-75
2022/11/27 02:38:19;;;;;;;26.63;18.70;;;;;;;5.04;55.32;102492.13;5038726;28;20393;-75
2022/11/27 02:40:57;;;;;;;25.10;17.45;;;;;;;5.06;55.31;102491.13;5050527;28;20393;-75
2022/11/27 02:43:31;;;;;;;23.65;16.25;;;;;;;5.17;55.38;102487.88;5048612;28;20392;-75
2022/11/27 02:45:59;;;;;;;21.40;15.10;;;;;;;5.19;54.79;102480.72;5057228;28;20418;-75
2022/11/27 02:48:33;;;;;;;23.77;15.70;;;;;;;5.28;54.86;102493.31;5018046;28;20905;-75
2022/11/27 02:50:59;;;;;;;20.58;15.60;;;;;;;5.34;54.90;102479.78;5017207;28;20390;-75
2022/11/27 02:53:32;;;;;;;22.90;16.33;;;;;;;5.36;54.57;102470.03;5041839;28;20501;-75
2022/11/27 02:56:01;;;;;;;22.20;16.23;;;;;;;5.38;54.52;102474.34;5050636;28;20532;-75
2022/11/27 02:58:28;;;;;;;22.92;15.77;;;;;;;5.32;54.62;102473.78;5039078;28;20858;-75
2022/11/27 03:00:55;;;;;;;18.25;13.55;;;;;;;5.25;55.25;102472.47;5040935;28;20398;-75
2022/11/27 03:03:25;;;;;;;19.27;12.70;;;;;;;5.13;55.42;102473.19;5050835;28;20879;-75
2022/11/27 03:05:55;;;;;;;18.42;12.52;;;;;;;5.02;56.01;102463.31;5041832;28;20489;-75
2022/11/27 03:08:40;;;;;;;23.98;12.88;;;;;;;5.02;56.06;102472.97;5056734;28;20709;-75
2022/11/27 03:11:15;;;;;;;20.77;13.03;;;;;;;4.95;56.00;102473.34;5045825;28;20398;-75
2022/11/27 03:13:45;;;;;;;18.83;12.15;;;;;;;4.98;56.19;102475.78;5048311;28;20384;-75
2022/11/27 03:16:44;;;;;;;18.45;12.27;;;;;;;4.94;56.17;102482.16;5042174;28;20398;-75
2022/11/27 03:19:09;;;;;;;27.17;15.32;;;;;;;4.96;56.85;102493.44;5036949;28;20884;-75
2022/11/27 03:21:44;;;;;;;23.87;13.53;;;;;;;4.93;56.73;102485.75;5044644;28;20392;-75
2022/11/27 03:24:11;;;;;;;23.77;13.55;;;;;;;4.95;56.52;102489.13;5053885;28;20395;-75
2022/11/27 03:26:38;;;;;;;20.73;13.73;;;;;;;4.89;56.33;102486.00;5047751;28;20882;-75
2022/11/27 03:29:11;;;;;;;18.07;11.40;;;;;;;4.89;56.85;102478.94;5046091;28;20405;-75
2022/11/27 03:31:37;;;;;;;18.07;12.47;;;;;;;4.86;56.76;102483.53;5049714;28;20389;-75
2022/11/27 03:34:03;;;;;;;19.20;12.40;;;;;;;4.82;56.64;102482.03;5049094;28;20400;-75
2022/11/27 03:36:29;;;;;;;20.20;12.93;;;;;;;4.82;56.61;102484.66;5037863;28;20386;-75
2022/11/27 03:38:55;;;;;;;19.10;12.05;;;;;;;4.80;56.93;102479.50;5049694;28;20732;-76
2022/11/27 03:41:20;;;;;;;16.95;12.10;;;;;;;4.83;56.58;102489.81;5052241;28;20828;-75
2022/11/27 03:44:27;;;;;;;20.30;12.60;;;;;;;4.81;56.42;102478.56;5026865;28;20463;-75
2022/11/27 03:47:11;;;;;;;22.65;14.63;;;;;;;4.90;56.36;102492.97;5034129;28;20476;-75
2022/11/27 03:49:53;;;;;;;20.40;13.15;;;;;;;4.90;56.43;102491.16;5041500;28;20971;-75
2022/11/27 03:52:55;;;;;;;19.20;13.18;;;;;;;4.84;56.71;102493.28;5046567;28;20385;-75
2022/11/27 03:55:24;;;;;;;21.02;12.95;;;;;;;4.87;56.70;102488.72;5048884;28;20380;-75
2022/11/27 03:58:20;;;;;;;20.65;13.73;;;;;;;4.94;56.14;102490.03;5053657;28;20390;-74
2022/11/27 04:00:49;;;;;;;26.08;17.50;;;;;;;5.09;56.24;102490.09;5046183;28;20457;-73
2022/11/27 04:03:23;;;;;;;20.60;14.40;;;;;;;5.07;55.64;102491.97;5042409;28;20389;-74
2022/11/27 04:05:48;;;;;;;20.83;14.88;;;;;;;5.13;55.80;102488.97;5043821;28;20772;-74
2022/11/27 04:08:14;;;;;;;20.67;14.90;;;;;;;5.25;55.46;102484.75;5042248;28;20450;-74
2022/11/27 04:10:39;;;;;;;20.77;14.67;;;;;;;5.42;55.20;102487.25;5044961;28;20490;-75
2022/11/27 04:13:05;;;;;;;22.13;14.93;;;;;;;5.48;54.87;102486.03;5043418;28;20397;-75
2022/11/27 04:15:30;;;;;;;18.67;12.93;;;;;;;5.50;54.86;102490.25;5043869;28;20390;-74
2022/11/27 04:17:56;;;;;;;19.43;13.80;;;;;;;5.50;54.38;102484.97;5041105;28;20401;-74
2022/11/27 04:20:21;;;;;;;20.53;14.63;;;;;;;5.39;54.60;102482.16;5045820;28;20406;-74
2022/11/27 04:22:47;;;;;;;24.48;18.40;;;;;;;5.33;55.17;102485.13;5035060;28;20429;-74
2022/11/27 04:25:12;;;;;;;27.67;19.47;;;;;;;5.31;55.00;102487.00;5055101;28;20391;-75
2022/11/27 04:27:38;;;;;;;26.97;20.10;;;;;;;5.47;55.18;102486.94;5050090;28;20412;-75
2022/11/27 04:30:04;;;;;;;48.67;43.87;;;;;;;5.63;54.66;102497.38;5041673;28;20391;-74
2022/11/27 04:32:29;;;;;;;34.88;31.33;;;;;;;5.66;54.62;102492.78;5061123;28;20400;-74
2022/11/27 04:34:54;;;;;;;25.13;20.23;;;;;;;5.72;54.70;102496.81;5048341;28;20400;-74
2022/11/27 04:37:20;;;;;;;24.90;18.48;;;;;;;5.74;54.07;102494.94;5050284;28;20385;-73
2022/11/27 04:39:45;;;;;;;23.70;15.20;;;;;;;5.81;53.95;102493.63;5061241;28;20390;-75
2022/11/27 04:42:11;;;;;;;21.23;14.27;;;;;;;5.83;54.20;102493.53;5049459;28;20479;-74
2022/11/27 04:44:36;;;;;;;25.40;19.13;;;;;;;5.82;54.07;102494.47;5032034;28;20394;-74
2022/11/27 04:47:02;;;;;;;22.63;15.30;;;;;;;5.82;54.21;102505.00;5046959;28;20415;-74
2022/11/27 04:49:27;;;;;;;23.87;15.87;;;;;;;5.81;54.10;102501.50;5053247;28;20383;-74
2022/11/27 04:51:53;;;;;;;26.47;17.63;;;;;;;5.77;54.06;102497.38;5059711;28;20773;-74
2022/11/27 04:54:18;;;;;;;28.98;18.35;;;;;;;5.80;53.93;102497.22;5049644;28;20399;-74
2022/11/27 04:56:44;;;;;;;26.77;18.90;;;;;;;5.82;54.62;102510.28;5044914;28;20379;-75
2022/11/27 04:59:09;;;;;;;33.23;20.03;;;;;;;5.80;54.49;102501.59;5049593;28;20401;-74
2022/11/27 05:01:35;;;;;;;31.27;20.42;;;;;;;5.85;53.99;102500.41;5045824;28;20404;-74
2022/11/27 05:04:00;;;;;;;31.00;19.70;;;;;;;5.83;54.35;102494.38;5049986;28;20858;-75
2022/11/27 05:06:26;;;;;;;27.57;20.40;;;;;;;5.86;54.31;102493.34;5047635;28;20910;-75
2022/11/27 05:08:58;;;;;;;35.30;22.43;;;;;;;5.91;53.90;102502.63;5041189;28;20814;-75
2022/11/27 05:11:24;;;;;;;30.83;21.23;;;;;;;5.94;53.89;102502.47;5031777;28;20472;-75
2022/11/27 05:14:13;;;;;;;39.17;27.97;;;;;;;5.97;54.04;102500.59;5044287;28;20468;-74
2022/11/27 05:16:34;;;;;;;52.20;46.45;;;;;;;5.97;53.60;102501.44;5043320;28;20764;-74
2022/11/27 05:19:00;;;;;;;41.95;29.88;;;;;;;6.03;53.50;102501.06;5023079;28;20898;-75
2022/11/27 05:21:25;;;;;;;35.83;23.13;;;;;;;6.06;53.46;102498.22;5040494;28;20388;-75
2022/11/27 05:23:51;;;;;;;37.27;23.27;;;;;;;5.97;53.84;102498.81;5042490;28;20414;-75
2022/11/27 05:26:16;;;;;;;40.00;26.60;;;;;;;5.90;54.00;102500.09;5046860;28;20496;-75
2022/11/27 05:28:41;;;;;;;38.90;24.50;;;;;;;5.90;54.03;102516.72;5050196;28;20385;-74
2022/11/27 05:31:07;;;;;;;39.70;25.33;;;;;;;5.92;53.79;102508.75;5043015;28;20394;-76
2022/11/27 05:33:33;;;;;;;34.73;24.17;;;;;;;5.87;53.89;102510.81;5048837;28;20405;-76
2022/11/27 05:35:58;;;;;;;32.17;22.73;;;;;;;5.81;53.91;102512.03;5045627;28;20401;-73
2022/11/27 05:38:24;;;;;;;34.00;26.42;;;;;;;5.81;54.01;102516.47;5047698;28;20558;-74
2022/11/27 05:40:49;;;;;;;34.27;24.07;;;;;;;5.80;54.22;102520.03;5030931;28;20480;-74
2022/11/27 05:43:15;;;;;;;33.40;24.13;;;;;;;5.87;54.17;102519.56;5044427;28;20386;-74
2022/11/27 05:45:40;;;;;;;34.00;22.15;;;;;;;5.93;53.82;102518.34;5043662;28;20423;-74
2022/11/27 05:48:05;;;;;;;34.47;22.10;;;;;;;5.91;54.14;102530.75;5036492;28;20418;-74
2022/11/27 05:50:32;;;;;;;34.17;23.00;;;;;;;6.00;53.93;102524.94;5049687;28;20458;-74
2022/11/27 05:52:57;;;;;;;35.05;23.58;;;;;;;6.02;53.96;102533.59;5049878;28;20407;-74
2022/11/27 05:55:23;;;;;;;30.70;20.08;;;;;;;6.03;54.16;102534.44;5050702;28;20751;-75
2022/11/27 05:57:48;;;;;;;26.27;18.37;;;;;;;6.00;54.26;102542.53;5042481;28;20876;-75
2022/11/27 06:00:14;;;;;;;27.47;18.20;;;;;;;5.89;54.35;102541.38;5047667;28;20528;-73
2022/11/27 06:02:40;;;;;;;25.77;17.58;;;;;;;5.82;54.31;102544.50;5026307;28;20390;-73
2022/11/27 06:05:06;;;;;;;22.13;15.23;;;;;;;5.70;54.83;102541.63;5046208;28;20388;-74
2022/11/27 06:07:31;;;;;;;19.85;13.32;;;;;;;5.60;55.53;102545.78;5051689;28;20415;-75
2022/11/27 06:09:57;;;;;;;20.63;14.37;;;;;;;5.59;55.46;102545.88;5038066;28;20386;-75
2022/11/27 06:12:22;;;;;;;22.27;14.70;;;;;;;5.56;55.08;102544.25;5046196;28;20922;-74
2022/11/27 06:14:48;;;;;;;23.15;16.20;;;;;;;5.54;55.71;102539.09;5047919;28;20385;-75
2022/11/27 06:17:15;;;;;;;25.52;17.33;;;;;;;5.57;55.56;102537.22;5045713;28;20420;-75
2022/11/27 06:19:41;;;;;;;26.15;17.23;;;;;;;5.53;55.35;102540.03;5053039;28;20432;-74
2022/11/27 06:22:07;;;;;;;25.42;17.05;;;;;;;5.60;55.31;102544.91;5047352;28;21006;-74
2022/11/27 06:24:33;;;;;;;23.08;15.98;;;;;;;5.70;55.12;102551.31;5051363;28;20472;-75
2022/11/27 06:26:58;;;;;;;29.87;18.13;;;;;;;5.74;54.89;102547.56;5044077;28;20750;-75
2022/11/27 06:29:23;;;;;;;28.53;17.00;;;;;;;5.77;55.22;102544.75;5049373;28;20385;-75
2022/11/27 06:31:49;;;;;;;30.55;18.60;;;;;;;5.70;55.52;102531.13;5047017;28;20385;-75
2022/11/27 06:34:14;;;;;;;59.00;33.87;;;;;;;5.66;55.56;102544.56;5053414;28;20399;-74
2022/11/27 06:36:40;;;;;;;112.30;49.90;;;;;;;5.57;55.43;102545.97;5053225;28;20380;-75
2022/11/27 06:39:07;;;;;;;28.25;17.23;;;;;;;5.52;55.63;102548.00;5052479;28;20394;-75
2022/11/27 06:41:32;;;;;;;64.63;34.40;;;;;;;5.48;56.28;102555.25;5047189;28;20391;-75
2022/11/27 06:43:59;;;;;;;25.48;17.20;;;;;;;5.45;56.37;102549.31;5049700;28;20384;-75
2022/11/27 06:46:25;;;;;;;22.95;13.95;;;;;;;5.44;56.52;102551.13;5053908;28;20427;-74
2022/11/27 06:48:52;;;;;;;23.70;15.10;;;;;;;5.43;56.16;102559.94;5069325;28;20383;-74
2022/11/27 06:51:21;;;;;;;23.42;15.63;;;;;;;5.56;56.22;102560.03;5064879;28;20387;-75
2022/11/27 06:53:46;;;;;;;26.73;16.48;;;;;;;5.54;56.06;102554.88;5064180;28;20391;-75
2022/11/27 06:56:16;;;;;;;28.70;18.58;;;;;;;5.58;55.61;102560.78;5051060;28;20835;-74
2022/11/27 06:58:41;;;;;;;33.95;20.33;;;;;;;5.52;56.33;102550.66;5052525;28;20433;-74
2022/11/27 07:01:10;;;;;;;23.40;15.60;;;;;;;5.60;56.16;102564.19;5052629;28;20440;-74
2022/11/27 07:03:37;;;;;;;24.48;16.15;;;;;;;5.55;56.53;102561.00;4980261;28;20454;-75
2022/11/27 07:06:05;;;;;;;25.85;16.23;;;;;;;5.50;56.38;102557.78;5051182;28;20778;-74
2022/11/27 07:08:31;;;;;;;18.35;12.70;;;;;;;5.48;56.44;102551.78;5051429;28;20829;-75
2022/11/27 07:11:05;;;;;;;18.73;12.68;;;;;;;5.52;55.99;102548.00;5052288;28;20393;-74
2022/11/27 07:13:31;;;;;;;17.67;12.38;;;;;;;5.46;56.53;102543.97;5050908;28;20388;-76
2022/11/27 07:16:01;;;;;;;22.15;14.35;;;;;;;5.54;56.55;102546.97;5048152;28;20384;-76
2022/11/27 07:18:28;;;;;;;23.02;14.25;;;;;;;5.60;56.00;102552.81;5054471;28;20365;-75
2022/11/27 07:20:53;;;;;;;19.33;12.88;;;;;;;5.62;55.84;102549.16;5051225;28;20383;-76
2022/11/27 07:23:19;;;;;;;19.52;13.68;;;;;;;5.49;56.54;102541.16;5051925;28;20372;-75
2022/11/27 07:25:44;;;;;;;19.48;11.95;;;;;;;5.54;56.24;102552.25;5037207;28;20363;-76
2022/11/27 07:28:10;;;;;;;19.27;12.13;;;;;;;5.48;56.24;102544.72;5056699;28;20454;-76
2022/11/27 07:30:36;;;;;;;19.70;12.65;;;;;;;5.62;56.03;102553.56;5053634;28;20758;-75
2022/11/27 07:33:01;;;;;;;19.70;12.17;;;;;;;5.65;56.39;102550.75;5058349;28;20395;-75
2022/11/27 07:35:27;;;;;;;19.97;13.93;;;;;;;5.62;56.17;102549.16;5051447;28;20786;-75
2022/11/27 07:37:52;;;;;;;25.38;15.82;;;;;;;5.72;56.20;102558.19;5051492;28;20725;-76
2022/11/27 07:40:18;;;;;;;22.37;16.37;;;;;;;5.87;55.86;102548.53;5052077;28;20435;-76
2022/11/27 07:42:44;;;;;;;20.77;13.70;;;;;;;5.81;56.29;102542.78;5051890;28;20456;-75
2022/11/27 07:45:10;;;;;;;19.30;13.40;;;;;;;5.80;56.31;102548.97;5034159;28;20412;-76
2022/11/27 07:47:35;;;;;;;23.13;14.95;;;;;;;5.82;56.02;102547.13;5051470;28;20404;-75
2022/11/27 07:50:01;;;;;;;20.73;13.68;;;;;;;5.83;56.27;102547.00;5026608;28;20416;-76
2022/11/27 07:52:27;;;;;;;19.55;13.20;;;;;;;5.87;55.97;102548.53;5051698;28;20365;-75
2022/11/27 07:54:52;;;;;;;22.53;14.50;;;;;;;5.90;56.34;102550.94;5051668;28;20383;-76
2022/11/27 07:57:18;;;;;;;18.60;13.37;;;;;;;5.97;55.86;102548.00;5051710;28;20968;-76
2022/11/27 07:59:43;;;;;;;21.33;14.97;;;;;;;5.98;56.48;102552.28;5052296;28;20385;-75
2022/11/27 08:02:12;;;;;;;23.02;15.27;;;;;;;5.99;55.93;102548.72;5050809;28;20454;-75
2022/11/27 08:04:37;;;;;;;22.07;14.13;;;;;;;6.16;55.72;102548.53;5051390;28;20967;-75
2022/11/27 08:07:03;;;;;;;24.97;17.13;;;;;;;6.15;55.92;102553.91;5050767;28;20822;-75
2022/11/27 08:09:29;;;;;;;27.00;16.47;;;;;;;6.21;55.77;102556.13;5062784;28;20866;-75
2022/11/27 08:11:54;;;;;;;21.60;14.70;;;;;;;6.06;56.31;102553.53;5050248;28;20392;-75
2022/11/27 08:14:20;;;;;;;23.67;15.77;;;;;;;6.04;56.07;102560.66;5047403;28;20429;-75
2022/11/27 08:16:45;;;;;;;23.77;16.70;;;;;;;5.86;56.68;102559.97;5048561;28;20857;-75
2022/11/27 08:19:12;;;;;;;26.60;18.35;;;;;;;6.08;56.56;102559.53;5047983;28;20450;-75
2022/11/27 08:21:37;;;;;;;26.70;18.27;;;;;;;6.24;56.12;102562.06;5031612;28;20386;-75
2022/11/27 08:24:03;;;;;;;24.90;15.82;;;;;;;6.33;55.59;102563.28;5047301;28;20395;-75
2022/11/27 08:26:29;;;;;;;23.42;15.65;;;;;;;6.31;55.43;102558.09;5047090;28;20819;-75
2022/11/27 08:28:55;;;;;;;27.10;19.67;;;;;;;6.48;55.68;102570.22;5046771;28;20377;-74
2022/11/27 08:31:21;;;;;;;26.40;18.83;;;;;;;6.64;55.03;102561.31;5049220;28;20491;-77
2022/11/27 08:33:47;;;;;;;29.70;20.02;;;;;;;6.72;55.02;102556.41;5048853;28;20865;-76
2022/11/27 08:36:12;;;;;;;26.97;15.83;;;;;;;6.79;54.84;102556.84;5047802;28;20455;-76
2022/11/27 08:38:38;;;;;;;21.43;14.33;;;;;;;6.85;54.54;102561.72;5049420;28;20749;-75
2022/11/27 08:41:05;;;;;;;23.25;15.88;;;;;;;6.79;54.58;102556.84;5056587;28;20385;-75
2022/11/27 08:43:31;;;;;;;22.75;15.10;;;;;;;6.70;54.51;102559.16;5049298;28;20434;-75
2022/11/27 08:45:57;;;;;;;23.73;16.20;;;;;;;6.83;54.24;102561.81;5046128;28;20451;-76
2022/11/27 08:48:25;;;;;;;23.13;15.48;;;;;;;6.87;54.36;102550.13;5046868;28;20420;-75
2022/11/27 08:50:51;;;;;;;20.20;13.88;;;;;;;6.88;54.17;102556.28;5048905;28;20403;-75
2022/11/27 08:53:17;;;;;;;23.38;16.38;;;;;;;6.83;54.45;102558.34;5048050;28;20478;-75
2022/11/27 08:55:43;;;;;;;26.33;16.83;;;;;;;6.85;54.48;102559.94;5047623;28;20384;-74
2022/11/27 08:58:09;;;;;;;25.52;17.23;;;;;;;6.88;54.51;102548.34;5048200;28;20411;-73
2022/11/27 09:00:36;;;;;;;24.25;16.85;;;;;;;6.95;53.92;102556.69;5047858;28;20446;-74
2022/11/27 09:03:02;;;;;;;28.25;18.55;;;;;;;7.00;54.00;102544.88;5048443;28;20442;-75
2022/11/27 09:05:28;;;;;;;30.10;20.20;;;;;;;7.06;53.64;102552.41;5059479;28;20378;-74
2022/11/27 09:07:54;;;;;;;38.58;24.48;;;;;;;7.10;54.35;102553.06;5055401;28;20864;-75
2022/11/27 09:10:20;;;;;;;37.47;24.55;;;;;;;7.14;54.52;102545.78;5069908;28;20402;-75
2022/11/27 09:12:46;;;;;;;39.88;24.75;;;;;;;7.31;54.55;102537.59;5055342;28;20382;-78
2022/11/27 09:15:13;;;;;;;24.10;16.55;;;;;;;7.37;54.31;102539.81;5056894;28;20383;-75
2022/11/27 09:17:38;;;;;;;24.23;16.92;;;;;;;7.46;53.90;102546.25;5052601;28;20386;-76
2022/11/27 09:20:05;;;;;;;26.30;17.60;;;;;;;7.47;53.59;102540.00;5056370;28;20375;-75
2022/11/27 09:22:32;;;;;;;30.77;18.63;;;;;;;7.51;53.70;102541.50;5067605;28;20788;-75
2022/11/27 09:24:58;;;;;;;25.98;17.67;;;;;;;7.54;53.60;102529.88;5059246;28;20741;-75
2022/11/27 09:27:23;;;;;;;33.67;22.07;;;;;;;7.57;53.55;102527.03;5064028;28;20407;-74
2022/11/27 09:29:49;;;;;;;35.00;21.93;;;;;;;7.75;53.62;102535.50;5059265;28;21241;-76
2022/11/27 09:32:14;;;;;;;32.57;22.67;;;;;;;7.76;53.95;102524.81;5044148;28;21027;-75
2022/11/27 09:34:40;;;;;;;38.27;23.00;;;;;;;7.77;53.60;102523.84;5042534;28;20495;-75
2022/11/27 09:37:06;;;;;;;31.57;22.50;;;;;;;7.90;53.80;102523.00;5052343;28;20404;-75
2022/11/27 09:39:32;;;;;;;34.80;23.33;;;;;;;7.96;53.75;102517.28;5042702;28;20380;-75
2022/11/27 09:42:00;;;;;;;34.53;23.45;;;;;;;7.94;53.42;102514.78;5044112;28;20396;-75
2022/11/27 09:44:42;;;;;;;31.92;21.92;;;;;;;8.07;53.26;102512.09;5055079;28;22151;-76
2022/11/27 09:47:17;;;;;;;28.88;21.08;;;;;;;8.07;53.34;102500.66;5046229;28;20539;-76
2022/11/27 09:49:49;;;;;;;31.75;20.27;;;;;;;8.15;53.28;102506.25;5031094;28;20389;-75
2022/11/27 09:52:40;;;;;;;29.00;19.50;;;;;;;8.09;53.35;102502.25;5050022;28;20417;-76
2022/11/27 09:55:42;;;;;;;27.95;20.48;;;;;;;8.08;54.19;102487.34;5050041;28;20764;-75
2022/11/27 09:58:19;;;;;;;27.70;19.67;;;;;;;8.14;53.66;102479.00;5046797;28;21074;-75
2022/11/27 10:00:45;;;;;;;31.27;20.10;;;;;;;8.24;53.54;102480.00;5057875;28;20439;-74
2022/11/27 10:03:17;;;;;;;24.90;18.15;;;;;;;8.04;53.83;102484.09;5051638;28;20375;-77
2022/11/27 10:06:01;;;;;;;24.65;17.30;;;;;;;8.03;53.55;102486.84;5055057;28;21137;-75
2022/11/27 10:08:36;;;;;;;29.02;19.67;;;;;;;8.10;53.63;102474.88;5048976;28;20419;-76
2022/11/27 10:11:32;;;;;;;30.48;19.75;;;;;;;8.33;53.29;102472.38;5032082;28;20771;-76
2022/11/27 10:14:16;;;;;;;24.55;17.67;;;;;;;8.40;52.79;102466.53;5062609;28;20428;-76
2022/11/27 10:16:47;;;;;;;28.97;19.50;;;;;;;8.56;52.92;102463.63;5066666;28;20380;-76
2022/11/27 10:19:29;;;;;;;26.08;17.90;;;;;;;8.42;53.12;102466.47;5057516;28;20381;-76
2022/11/27 10:22:13;;;;;;;26.73;17.58;;;;;;;8.45;53.04;102460.97;5057762;28;20380;-76
2022/11/27 10:25:18;;;;;;;29.58;19.10;;;;;;;8.50;53.13;102457.97;5065065;28;20691;-75
2022/11/27 10:27:58;;;;;;;26.63;18.02;;;;;;;8.59;53.12;102462.59;5060200;28;20405;-75
2022/11/27 10:30:27;;;;;;;27.10;16.63;;;;;;;8.71;53.38;102456.34;5061372;28;20379;-75
2022/11/27 10:32:55;;;;;;;24.83;18.08;;;;;;;8.68;53.05;102453.97;5058716;28;20375;-75
2022/11/27 10:35:27;;;;;;;25.63;18.48;;;;;;;8.72;53.70;102455.41;5062212;28;20460;-75
2022/11/27 10:38:15;;;;;;;27.63;18.53;;;;;;;8.80;52.54;102452.19;5063459;28;21098;-75
2022/11/27 10:41:11;;;;;;;35.30;19.02;;;;;;;8.74;53.44;102447.38;5060494;28;20481;-75
2022/11/27 10:43:36;;;;;;;25.15;16.65;;;;;;;8.74;52.96;102450.03;5056631;28;20474;-75
2022/11/27 10:46:18;;;;;;;27.30;19.20;;;;;;;8.89;53.05;102446.19;5058106;28;20494;-75
2022/11/27 10:48:43;;;;;;;27.33;18.88;;;;;;;8.93;52.80;102454.75;5059920;28;20973;-76
2022/11/27 10:51:24;;;;;;;25.17;17.30;;;;;;;8.93;52.89;102455.59;5062609;28;20475;-75
2022/11/27 10:53:52;;;;;;;26.17;17.80;;;;;;;8.91;53.58;102456.66;5054107;28;20379;-75
2022/11/27 10:56:46;;;;;;;25.27;17.40;;;;;;;8.88;53.26;102441.88;5060132;28;20373;-76
2022/11/27 10:59:26;;;;;;;22.83;17.10;;;;;;;8.94;52.86;102445.88;5052503;28;20392;-76
2022/11/27 11:01:52;;;;;;;24.65;17.13;;;;;;;9.05;52.91;102445.03;5060758;28;20386;-75
2022/11/27 11:04:29;;;;;;;35.78;31.95;;;;;;;9.08;52.54;102445.66;5050907;28;20411;-77
2022/11/27 11:06:56;;;;;;;34.10;28.17;;;;;;;9.14;52.35;102441.69;5032070;28;20442;-77
2022/11/27 11:09:30;;;;;;;26.15;18.98;;;;;;;9.19;52.90;102426.31;5039902;28;20720;-78
2022/11/27 11:12:07;;;;;;;41.40;36.97;;;;;;;9.21;52.68;102427.03;5047804;28;20901;-75
2022/11/27 11:14:32;;;;;;;22.95;17.55;;;;;;;9.28;52.74;102412.34;5051655;28;20365;-77
2022/11/27 11:16:58;;;;;;;24.30;18.20;;;;;;;9.26;52.89;102414.28;5063515;28;20388;-79
2022/11/27 11:19:29;;;;;;;26.53;18.53;;;;;;;9.17;52.55;102417.66;5050165;28;20840;-76
2022/11/27 11:21:57;;;;;;;26.95;19.02;;;;;;;9.17;52.59;102399.13;5030153;28;20412;-77
2022/11/27 11:24:31;;;;;;;25.85;18.00;;;;;;;9.31;52.79;102408.63;5042310;28;20371;-76
2022/11/27 11:27:20;;;;;;;26.38;18.50;;;;;;;9.33;52.42;102402.25;5048867;28;20483;-77
2022/11/27 11:29:48;;;;;;;26.83;17.90;;;;;;;9.34;52.62;102411.88;5049349;28;20387;-77